createdAt,value
2018-07-31T00:00:15.448Z,69.69
2018-07-31T00:02:43.992Z,69.90
2018-07-31T00:05:12.633Z,70.17
2018-07-31T00:07:41.172Z,70.42
2018-07-31T00:10:09.776Z,69.87
2018-07-31T00:12:38.312Z,69.99
2018-07-31T00:15:09.301Z,71.88
2018-07-31T00:17:37.892Z,72.88
2018-07-31T00:20:06.520Z,74.82
2018-07-31T00:22:35.083Z,76.26
2018-07-31T00:25:03.817Z,74.37
2018-07-31T00:27:32.396Z,73.43
2018-07-31T00:30:00.974Z,74.85
2018-07-31T00:32:29.817Z,73.97
2018-07-31T00:34:58.645Z,73.76
2018-07-31T00:37:27.163Z,72.51
2018-07-31T00:39:56.088Z,73.30
2018-07-31T00:42:24.592Z,73.03
2018-07-31T00:44:53.161Z,73.06
2018-07-31T00:47:21.675Z,75.18
2018-07-31T00:49:50.207Z,73.92
2018-07-31T00:52:19.437Z,74.08
2018-07-31T00:54:48.011Z,74.31
2018-07-31T00:57:16.508Z,73.03
2018-07-31T00:59:45.056Z,73.42
2018-07-31T01:02:13.595Z,74.34
2018-07-31T01:04:42.197Z,73.62
2018-07-31T01:07:10.707Z,76.22
2018-07-31T01:09:39.268Z,75.79
2018-07-31T01:12:07.836Z,76.35
2018-07-31T01:14:36.400Z,74.49
2018-07-31T01:17:05.060Z,73.14
2018-07-31T01:19:33.634Z,73.06
2018-07-31T01:22:02.176Z,74.32
2018-07-31T01:24:30.739Z,74.42
2018-07-31T01:26:59.268Z,74.12
2018-07-31T01:29:27.835Z,73.83
2018-07-31T01:31:56.418Z,74.18
2018-07-31T01:34:24.965Z,73.98
2018-07-31T01:36:53.532Z,73.75
2018-07-31T01:39:22.061Z,73.33
2018-07-31T01:41:51.920Z,73.14
2018-07-31T01:44:20.456Z,73.77
2018-07-31T01:46:49.000Z,73.82
2018-07-31T01:49:17.497Z,73.45
2018-07-31T01:51:46.031Z,73.89
2018-07-31T01:54:14.529Z,73.48
2018-07-31T01:56:43.123Z,75.22
2018-07-31T01:59:11.620Z,73.09
2018-07-31T02:01:40.152Z,73.96
2018-07-31T02:04:08.648Z,74.22
2018-07-31T02:06:37.208Z,75.41
2018-07-31T02:09:07.677Z,75.97
2018-07-31T02:11:36.265Z,76.80
2018-07-31T02:14:04.829Z,75.74
2018-07-31T02:16:33.344Z,75.38
2018-07-31T02:19:01.927Z,75.56
2018-07-31T02:21:30.452Z,74.95
2018-07-31T02:23:58.964Z,74.19
2018-07-31T02:26:27.484Z,73.43
2018-07-31T02:28:56.034Z,75.13
2018-07-31T02:31:24.563Z,74.87
2018-07-31T02:33:53.204Z,76.58
2018-07-31T02:36:21.869Z,81.21
2018-07-31T02:38:50.391Z,79.21
2018-07-31T02:41:18.996Z,76.68
2018-07-31T02:43:47.550Z,76.02
2018-07-31T02:46:16.183Z,76.74
2018-07-31T02:48:44.733Z,75.70
2018-07-31T02:51:13.331Z,75.45
2018-07-31T02:53:41.860Z,76.03
2018-07-31T02:56:10.445Z,77.76
2018-07-31T02:58:39.000Z,76.83
2018-07-31T03:01:07.605Z,75.96
2018-07-31T03:03:36.160Z,76.31
2018-07-31T03:06:04.757Z,74.94
2018-07-31T03:08:33.305Z,76.04
2018-07-31T03:11:01.867Z,76.89
2018-07-31T03:13:30.392Z,77.89
2018-07-31T03:15:58.949Z,80.76
2018-07-31T03:18:27.489Z,79.50
2018-07-31T03:20:56.083Z,81.04
2018-07-31T03:23:24.608Z,77.17
2018-07-31T03:25:53.172Z,81.21
2018-07-31T03:28:22.141Z,78.39
2018-07-31T03:30:50.692Z,77.42
2018-07-31T03:33:19.324Z,77.92
2018-07-31T03:35:47.852Z,76.37
2018-07-31T03:38:16.412Z,78.99
2018-07-31T03:40:44.965Z,77.95
2018-07-31T03:43:13.568Z,79.10
2018-07-31T03:45:42.312Z,79.52
2018-07-31T03:48:10.985Z,78.44
2018-07-31T03:50:39.560Z,79.74
2018-07-31T03:53:08.136Z,80.22
2018-07-31T03:55:36.744Z,80.22
2018-07-31T03:58:05.348Z,81.59
2018-07-31T04:00:33.889Z,79.77
2018-07-31T04:03:02.492Z,80.53
2018-07-31T04:05:31.128Z,78.91
2018-07-31T04:07:59.661Z,80.72
2018-07-31T04:10:28.197Z,80.60
2018-07-31T04:12:56.768Z,80.28
2018-07-31T04:15:25.309Z,78.68
2018-07-31T04:17:57.008Z,79.68
2018-07-31T04:20:26.168Z,80.08
2018-07-31T04:22:54.783Z,80.68
2018-07-31T04:25:23.737Z,81.70
2018-07-31T04:27:52.844Z,80.96
2018-07-31T04:30:21.385Z,79.60
2018-07-31T04:32:49.944Z,80.01
2018-07-31T04:35:18.522Z,80.44
2018-07-31T04:37:47.123Z,80.66
2018-07-31T04:40:22.100Z,80.87
2018-07-31T04:42:50.719Z,79.43
2018-07-31T04:45:19.257Z,79.23
2018-07-31T04:47:47.825Z,81.14
2018-07-31T04:50:16.366Z,78.16
2018-07-31T04:52:50.005Z,78.14
2018-07-31T04:55:19.148Z,78.17
2018-07-31T04:57:47.712Z,77.99
2018-07-31T05:00:16.281Z,77.13
2018-07-31T05:02:44.848Z,77.57
2018-07-31T05:05:13.385Z,77.57
2018-07-31T05:07:42.112Z,76.30
2018-07-31T05:10:13.015Z,76.84
2018-07-31T05:12:42.940Z,76.75
2018-07-31T05:15:11.641Z,75.73
2018-07-31T05:17:40.587Z,75.84
2018-07-31T05:20:10.489Z,77.08
2018-07-31T05:22:39.845Z,76.75
2018-07-31T05:25:08.574Z,77.75
2018-07-31T05:27:37.309Z,76.29
2018-07-31T05:30:07.832Z,76.87
2018-07-31T05:32:36.653Z,77.11
2018-07-31T05:35:05.637Z,77.56
2018-07-31T05:37:34.170Z,76.51
2018-07-31T05:40:02.732Z,75.73
2018-07-31T05:42:31.327Z,75.24
2018-07-31T05:45:00.687Z,75.40
2018-07-31T05:47:29.195Z,76.17
2018-07-31T05:49:57.745Z,75.14
2018-07-31T05:52:26.248Z,73.59
2018-07-31T05:54:54.780Z,73.10
2018-07-31T05:57:24.370Z,73.33
2018-07-31T05:59:52.887Z,73.94
2018-07-31T06:02:21.382Z,73.16
2018-07-31T06:04:49.928Z,72.59
2018-07-31T06:07:18.440Z,71.86
2018-07-31T06:09:46.960Z,71.19
2018-07-31T06:12:15.449Z,72.13
2018-07-31T06:14:43.984Z,70.53
2018-07-31T06:17:12.550Z,69.73
2018-07-31T06:19:41.076Z,69.55
2018-07-31T06:22:09.556Z,69.89
2018-07-31T06:24:38.101Z,69.60
2018-07-31T06:27:06.656Z,69.37
2018-07-31T06:29:35.259Z,69.41
2018-07-31T06:32:03.764Z,70.17
2018-07-31T06:34:32.288Z,69.08
2018-07-31T06:37:00.816Z,68.36
2018-07-31T06:39:29.338Z,67.85
2018-07-31T06:41:57.821Z,67.66
2018-07-31T06:44:26.390Z,67.43
2018-07-31T06:46:55.277Z,67.15
2018-07-31T06:49:23.862Z,66.01
2018-07-31T06:51:52.335Z,67.58
2018-07-31T06:54:20.869Z,66.75
2018-07-31T06:56:49.394Z,67.21
2018-07-31T06:59:17.912Z,66.29
2018-07-31T07:01:46.412Z,66.01
2018-07-31T07:04:14.940Z,66.05
2018-07-31T07:06:43.460Z,64.85
2018-07-31T07:09:12.660Z,64.68
2018-07-31T07:11:41.236Z,63.98
2018-07-31T07:14:09.760Z,63.82
2018-07-31T07:16:38.409Z,63.47
2018-07-31T07:19:06.948Z,62.50
2018-07-31T07:21:35.457Z,62.08
2018-07-31T07:24:04.017Z,62.06
2018-07-31T07:26:32.505Z,62.59
2018-07-31T07:29:01.021Z,62.01
2018-07-31T07:31:29.632Z,59.88
2018-07-31T07:33:58.241Z,60.51
2018-07-31T07:36:26.674Z,61.85
2018-07-31T07:38:55.412Z,60.45
2018-07-31T07:41:25.609Z,59.70
2018-07-31T07:43:54.540Z,57.49
2018-07-31T07:46:23.108Z,57.33
2018-07-31T07:48:51.624Z,57.39
2018-07-31T07:51:20.190Z,56.22
2018-07-31T07:53:48.727Z,55.94
2018-07-31T07:56:20.898Z,55.35
2018-07-31T07:58:49.430Z,54.83
2018-07-31T08:01:17.996Z,54.64
2018-07-31T08:03:46.553Z,54.76
2018-07-31T08:06:15.180Z,53.92
2018-07-31T08:08:43.703Z,54.37
2018-07-31T08:11:12.268Z,51.45
2018-07-31T08:13:40.789Z,50.89
2018-07-31T08:16:09.382Z,50.03
2018-07-31T08:18:37.920Z,50.17
2018-07-31T08:21:06.500Z,49.59
2018-07-31T08:23:35.112Z,50.15
2018-07-31T08:26:03.691Z,50.84
2018-07-31T08:28:32.227Z,50.62
2018-07-31T08:31:00.784Z,50.03
2018-07-31T08:33:31.529Z,49.15
2018-07-31T08:36:00.108Z,48.87
2018-07-31T08:38:28.716Z,48.39
2018-07-31T08:40:57.316Z,48.44
2018-07-31T08:43:26.602Z,47.81
2018-07-31T08:45:56.257Z,48.56
2018-07-31T08:48:24.731Z,48.74
2018-07-31T08:50:53.256Z,48.57
2018-07-31T08:53:21.772Z,49.41
2018-07-31T08:55:50.325Z,49.02
2018-07-31T08:58:18.818Z,49.89
2018-07-31T09:00:47.849Z,49.55
2018-07-31T09:03:16.406Z,48.82
2018-07-31T09:05:46.695Z,48.09
2018-07-31T09:08:17.276Z,49.12
2018-07-31T09:10:45.817Z,49.18
2018-07-31T09:13:14.864Z,48.22
2018-07-31T09:15:43.369Z,48.01
2018-07-31T09:18:12.094Z,46.84
2018-07-31T09:20:40.717Z,46.72
2018-07-31T09:23:09.241Z,45.87
2018-07-31T09:25:42.989Z,45.18
2018-07-31T09:28:14.341Z,45.17
2018-07-31T09:30:48.245Z,44.53
2018-07-31T09:33:16.769Z,43.52
2018-07-31T09:35:45.295Z,43.42
2018-07-31T09:38:13.824Z,43.25
2018-07-31T09:40:42.360Z,41.36
2018-07-31T09:43:11.268Z,40.19
2018-07-31T09:45:39.918Z,40.36
2018-07-31T09:48:08.447Z,40.22
2018-07-31T09:50:37.422Z,40.52
2018-07-31T09:53:06.264Z,41.31
2018-07-31T09:55:34.880Z,41.48
2018-07-31T09:58:03.824Z,40.49
2018-07-31T10:00:37.601Z,40.33
2018-07-31T10:03:06.416Z,40.69
2018-07-31T10:05:36.077Z,40.76
2018-07-31T10:08:04.611Z,40.34
2018-07-31T10:10:33.280Z,41.20
2018-07-31T10:13:02.133Z,41.48
2018-07-31T10:15:32.399Z,41.33
2018-07-31T10:18:01.652Z,40.94
2018-07-31T10:20:31.278Z,41.57
2018-07-31T10:23:00.860Z,40.25
2018-07-31T10:25:31.223Z,38.96
2018-07-31T10:28:00.890Z,39.42
2018-07-31T10:30:30.741Z,40.22
2018-07-31T10:33:00.385Z,40.13
2018-07-31T10:35:29.573Z,39.77
2018-07-31T10:37:58.136Z,38.76
2018-07-31T10:40:26.669Z,39.52
2018-07-31T10:42:55.610Z,39.51
2018-07-31T10:45:24.251Z,38.70
2018-07-31T10:47:52.818Z,39.09
2018-07-31T10:50:21.548Z,39.29
2018-07-31T10:52:50.921Z,39.22
2018-07-31T10:55:19.556Z,40.47
2018-07-31T10:57:48.108Z,39.38
2018-07-31T11:00:16.936Z,40.25
2018-07-31T11:02:45.647Z,40.56
2018-07-31T11:05:14.233Z,40.71
2018-07-31T11:07:42.840Z,39.86
2018-07-31T11:10:11.361Z,40.23
2018-07-31T11:12:39.933Z,40.41
2018-07-31T11:15:08.569Z,38.84
2018-07-31T11:17:37.225Z,38.60
2018-07-31T11:20:06.036Z,39.48
2018-07-31T11:22:34.875Z,38.77
2018-07-31T11:25:03.800Z,38.06
2018-07-31T11:27:32.390Z,37.43
2018-07-31T11:30:00.940Z,37.56
2018-07-31T11:32:29.503Z,37.89
2018-07-31T11:34:58.113Z,38.82
2018-07-31T11:37:26.747Z,39.39
2018-07-31T11:39:55.561Z,39.58
2018-07-31T11:42:24.092Z,39.64
2018-07-31T11:44:54.420Z,39.24
2018-07-31T11:47:23.222Z,40.13
2018-07-31T11:49:52.537Z,39.04
2018-07-31T11:52:21.001Z,38.08
2018-07-31T11:54:51.467Z,37.46
2018-07-31T11:57:19.957Z,36.54
2018-07-31T11:59:48.532Z,37.58
2018-07-31T12:02:17.041Z,37.11
2018-07-31T12:04:45.604Z,38.19
2018-07-31T12:07:14.088Z,37.96
2018-07-31T12:09:42.660Z,38.42
2018-07-31T12:12:11.477Z,37.82
2018-07-31T12:14:40.096Z,38.40
2018-07-31T12:17:09.556Z,37.88
2018-07-31T12:19:38.956Z,37.55
2018-07-31T12:22:08.632Z,37.35
2018-07-31T12:24:38.387Z,37.10
2018-07-31T12:27:08.384Z,38.00
2018-07-31T12:29:37.287Z,38.18
2018-07-31T12:32:07.451Z,38.80
2018-07-31T12:34:38.427Z,38.27
2018-07-31T12:37:14.796Z,38.07
2018-07-31T12:39:44.104Z,38.00
2018-07-31T12:42:13.136Z,38.55
2018-07-31T12:44:42.352Z,37.63
2018-07-31T12:47:13.517Z,37.68
2018-07-31T12:49:42.801Z,36.60
2018-07-31T12:52:11.336Z,35.93
2018-07-31T12:54:42.184Z,35.14
2018-07-31T12:57:14.287Z,35.59
2018-07-31T12:59:44.436Z,35.90
2018-07-31T13:02:15.821Z,35.58
2018-07-31T13:04:45.099Z,35.18
2018-07-31T13:07:14.942Z,35.23
2018-07-31T13:09:44.940Z,35.78
2018-07-31T13:12:13.946Z,36.07
2018-07-31T13:14:48.678Z,35.20
2018-07-31T13:17:18.769Z,35.81
2018-07-31T13:19:47.605Z,35.17
2018-07-31T13:22:16.099Z,35.26
2018-07-31T13:24:44.801Z,36.09
2018-07-31T13:27:13.883Z,35.16
2018-07-31T13:29:42.398Z,34.98
2018-07-31T13:32:10.933Z,34.34
2018-07-31T13:34:39.737Z,34.38
2018-07-31T13:37:08.724Z,34.47
2018-07-31T13:39:37.233Z,34.92
2018-07-31T13:42:05.979Z,35.11
2018-07-31T13:44:34.585Z,35.65
2018-07-31T13:47:03.488Z,35.52
2018-07-31T13:49:32.775Z,35.55
2018-07-31T13:52:01.257Z,35.61
2018-07-31T13:54:29.843Z,34.86
2018-07-31T13:56:58.533Z,35.70
2018-07-31T13:59:27.316Z,36.44
2018-07-31T14:01:56.389Z,36.72
2018-07-31T14:04:25.279Z,35.76
2018-07-31T14:06:53.956Z,35.69
2018-07-31T14:09:23.865Z,35.78
2018-07-31T14:11:52.740Z,38.05
2018-07-31T14:14:21.364Z,37.55
2018-07-31T14:16:49.965Z,38.62
2018-07-31T14:19:18.503Z,38.43
2018-07-31T14:21:47.056Z,36.96
2018-07-31T14:24:15.606Z,37.02
2018-07-31T14:26:44.476Z,37.05
2018-07-31T14:29:13.000Z,36.53
2018-07-31T14:31:41.561Z,36.76
2018-07-31T14:34:10.650Z,37.26
2018-07-31T14:36:40.408Z,35.99
2018-07-31T14:39:10.765Z,36.74
2018-07-31T14:41:40.367Z,37.31
2018-07-31T14:44:09.936Z,36.10
2018-07-31T14:46:38.525Z,36.56
2018-07-31T14:49:08.300Z,34.48
2018-07-31T14:51:36.854Z,35.04
2018-07-31T14:54:05.471Z,34.12
2018-07-31T14:56:34.481Z,33.85
2018-07-31T14:59:03.248Z,34.22
2018-07-31T15:01:35.887Z,34.47
2018-07-31T15:04:05.480Z,34.67
2018-07-31T15:06:34.604Z,34.37
2018-07-31T15:09:03.441Z,34.27
2018-07-31T15:11:32.069Z,33.90
2018-07-31T15:14:00.558Z,34.79
2018-07-31T15:16:33.986Z,33.59
2018-07-31T15:19:03.754Z,34.08
2018-07-31T15:21:32.594Z,34.14
2018-07-31T15:24:02.371Z,34.07
2018-07-31T15:26:42.029Z,34.02
2018-07-31T15:29:10.710Z,33.77
2018-07-31T15:31:40.340Z,33.11
2018-07-31T15:34:09.934Z,33.18
2018-07-31T15:36:38.617Z,33.31
2018-07-31T15:39:09.884Z,32.42
2018-07-31T15:41:39.133Z,32.06
2018-07-31T15:44:07.829Z,31.86
2018-07-31T15:46:36.433Z,30.84
2018-07-31T15:49:05.156Z,31.10
2018-07-31T15:51:33.940Z,30.89
2018-07-31T15:54:02.468Z,30.35
2018-07-31T15:56:31.301Z,30.84
2018-07-31T15:59:00.820Z,30.70
2018-07-31T16:01:29.668Z,30.70
2018-07-31T16:03:58.802Z,30.32
2018-07-31T16:06:27.397Z,30.76
2018-07-31T16:08:56.487Z,31.04
2018-07-31T16:11:25.980Z,31.32
2018-07-31T16:13:55.353Z,30.71
2018-07-31T16:16:24.128Z,30.65
2018-07-31T16:18:54.044Z,30.81
2018-07-31T16:21:22.619Z,29.99
2018-07-31T16:23:53.716Z,30.09
2018-07-31T16:26:22.211Z,29.41
2018-07-31T16:28:51.505Z,30.13
2018-07-31T16:31:21.086Z,29.59
2018-07-31T16:33:50.611Z,30.75
2018-07-31T16:36:20.004Z,31.13
2018-07-31T16:38:48.852Z,30.24
2018-07-31T16:41:17.614Z,30.02
2018-07-31T16:43:46.248Z,30.88
2018-07-31T16:46:14.850Z,29.90
2018-07-31T16:48:43.372Z,29.50
2018-07-31T16:51:12.460Z,29.48
2018-07-31T16:53:41.016Z,29.57
2018-07-31T16:56:10.209Z,29.69
2018-07-31T16:58:38.957Z,30.81
2018-07-31T17:01:13.374Z,30.82
2018-07-31T17:03:43.539Z,31.55
2018-07-31T17:06:12.412Z,31.32
2018-07-31T17:08:42.874Z,31.21
2018-07-31T17:11:13.402Z,28.00
2018-07-31T17:13:42.046Z,26.43
2018-07-31T17:16:10.773Z,28.76
2018-07-31T17:18:41.561Z,28.65
2018-07-31T17:21:11.063Z,29.51
2018-07-31T17:23:40.447Z,29.05
2018-07-31T17:26:09.169Z,29.39
2018-07-31T17:28:39.486Z,28.40
2018-07-31T17:31:08.453Z,29.10
2018-07-31T17:33:37.224Z,28.90
2018-07-31T17:36:06.918Z,29.44
2018-07-31T17:38:37.291Z,29.48
2018-07-31T17:41:06.568Z,31.78
2018-07-31T17:43:39.498Z,31.79
2018-07-31T17:46:09.207Z,29.49
2018-07-31T17:48:37.764Z,30.22
2018-07-31T17:51:07.837Z,31.15
2018-07-31T17:53:37.118Z,32.21
2018-07-31T17:56:05.759Z,32.18
2018-07-31T17:58:34.333Z,31.76
2018-07-31T18:01:02.864Z,33.35
2018-07-31T18:03:31.475Z,33.30
2018-07-31T18:05:59.995Z,33.40
2018-07-31T18:08:28.628Z,34.89
2018-07-31T18:10:57.173Z,35.56
2018-07-31T18:13:25.752Z,34.68
2018-07-31T18:15:54.275Z,34.37
2018-07-31T18:18:22.845Z,36.39
2018-07-31T18:20:51.376Z,37.69
2018-07-31T18:23:19.935Z,37.64
2018-07-31T18:25:48.474Z,38.23
2018-07-31T18:28:17.060Z,38.29
2018-07-31T18:30:45.602Z,38.59
2018-07-31T18:33:14.637Z,39.64
2018-07-31T18:35:43.174Z,40.23
2018-07-31T18:38:11.724Z,40.52
2018-07-31T18:40:40.257Z,40.20
2018-07-31T18:43:08.845Z,40.81
2018-07-31T18:45:37.761Z,41.46
2018-07-31T18:48:06.320Z,41.44
2018-07-31T18:50:34.937Z,41.00
2018-07-31T18:53:03.461Z,41.56
2018-07-31T18:55:32.073Z,41.50
2018-07-31T18:58:01.879Z,42.13
2018-07-31T19:00:30.585Z,42.29
2018-07-31T19:03:00.472Z,43.38
2018-07-31T19:05:29.086Z,42.96
2018-07-31T19:07:57.620Z,43.70
2018-07-31T19:10:26.188Z,43.25
2018-07-31T19:12:54.712Z,44.57
2018-07-31T19:15:23.344Z,45.19
2018-07-31T19:17:51.875Z,46.46
2018-07-31T19:20:20.433Z,48.42
2018-07-31T19:22:48.968Z,45.67
2018-07-31T19:25:17.532Z,45.23
2018-07-31T19:27:46.140Z,45.98
2018-07-31T19:30:14.695Z,45.81
2018-07-31T19:32:43.213Z,46.50
2018-07-31T19:35:11.789Z,46.60
2018-07-31T19:37:40.325Z,46.95
2018-07-31T19:40:08.882Z,46.99
2018-07-31T19:42:37.418Z,46.85
2018-07-31T19:45:06.049Z,47.33
2018-07-31T19:47:34.540Z,48.98
2018-07-31T19:50:03.088Z,47.85
2018-07-31T19:52:31.626Z,47.74
2018-07-31T19:55:00.204Z,48.84
2018-07-31T19:57:28.664Z,49.66
2018-07-31T19:59:57.192Z,50.27
2018-07-31T20:02:25.677Z,50.90
2018-07-31T20:04:54.225Z,51.66
2018-07-31T20:07:22.743Z,55.30
2018-07-31T20:09:51.276Z,55.36
2018-07-31T20:12:19.787Z,54.37
2018-07-31T20:14:48.357Z,54.03
2018-07-31T20:17:30.068Z,53.61
2018-07-31T20:20:26.093Z,53.97
2018-07-31T20:22:54.584Z,54.34
2018-07-31T20:25:23.149Z,55.24
2018-07-31T20:27:51.641Z,55.63
2018-07-31T20:30:20.168Z,55.42
2018-07-31T20:32:48.664Z,55.26
2018-07-31T20:35:18.556Z,56.50
2018-07-31T20:37:47.396Z,56.18
2018-07-31T20:40:16.708Z,58.64
2018-07-31T20:42:45.252Z,57.92
2018-07-31T20:45:14.677Z,56.94
2018-07-31T20:47:43.216Z,57.07
2018-07-31T20:50:11.787Z,59.46
2018-07-31T20:52:40.316Z,56.84
2018-07-31T20:55:08.932Z,56.08
2018-07-31T20:57:37.480Z,57.73
2018-07-31T21:00:06.567Z,58.12
2018-07-31T21:02:35.184Z,57.86
2018-07-31T21:05:03.844Z,59.02
2018-07-31T21:07:32.381Z,58.24
2018-07-31T21:10:01.134Z,58.39
2018-07-31T21:12:29.669Z,59.34
2018-07-31T21:14:59.771Z,59.65
2018-07-31T21:17:30.125Z,59.50
2018-07-31T21:20:04.173Z,60.99
2018-07-31T21:22:32.931Z,60.72
2018-07-31T21:25:01.456Z,59.99
2018-07-31T21:27:30.024Z,60.02
2018-07-31T21:29:58.597Z,60.64
2018-07-31T21:32:29.517Z,63.25
2018-07-31T21:34:58.415Z,64.08
2018-07-31T21:37:27.153Z,62.65
2018-07-31T21:39:57.111Z,61.22
2018-07-31T21:42:36.573Z,60.36
2018-07-31T21:45:15.168Z,60.17
2018-07-31T21:47:53.168Z,62.43
2018-07-31T21:50:25.729Z,63.21
2018-07-31T21:52:58.601Z,63.12
2018-07-31T21:55:30.999Z,62.56
2018-07-31T21:58:00.484Z,61.17
2018-07-31T22:00:36.283Z,60.72
2018-07-31T22:03:07.740Z,61.99
2018-07-31T22:05:41.638Z,63.89
2018-07-31T22:08:11.384Z,65.37
2018-07-31T22:10:39.925Z,66.50
2018-07-31T22:13:09.253Z,65.72
2018-07-31T22:15:38.573Z,64.71
2018-07-31T22:18:08.225Z,64.01
2018-07-31T22:20:39.006Z,65.17
2018-07-31T22:23:09.504Z,63.19
2018-07-31T22:25:40.085Z,65.73
2018-07-31T22:28:09.340Z,64.06
2018-07-31T22:30:39.995Z,64.22
2018-07-31T22:33:10.871Z,64.67
2018-07-31T22:35:40.989Z,64.18
2018-07-31T22:38:11.179Z,63.74
2018-07-31T22:40:42.104Z,67.12
2018-07-31T22:43:11.619Z,64.51
2018-07-31T22:45:43.960Z,63.32
2018-07-31T22:48:13.424Z,64.69
2018-07-31T22:50:43.230Z,66.08
2018-07-31T22:53:13.254Z,67.07
2018-07-31T22:55:46.673Z,66.74
2018-07-31T22:58:17.770Z,65.36
2018-07-31T23:00:47.939Z,67.07
2018-07-31T23:03:18.844Z,68.41
2018-07-31T23:05:48.661Z,67.11
2018-07-31T23:08:19.732Z,64.82
2018-07-31T23:10:52.427Z,64.52
2018-07-31T23:13:26.004Z,67.30
2018-07-31T23:15:56.227Z,68.46
2018-07-31T23:18:27.802Z,70.55
2018-07-31T23:20:58.389Z,68.53
2018-07-31T23:23:29.168Z,68.26
2018-07-31T23:25:59.942Z,67.04
2018-07-31T23:28:33.046Z,66.04
2018-07-31T23:31:02.233Z,65.67
2018-07-31T23:33:31.090Z,65.98
2018-07-31T23:36:01.785Z,65.99
2018-07-31T23:38:32.157Z,65.91
2018-07-31T23:41:00.684Z,65.10
2018-07-31T23:43:29.229Z,62.22
2018-07-31T23:45:57.753Z,60.73
2018-07-31T23:48:26.243Z,61.44
2018-07-31T23:50:55.033Z,68.15
2018-07-31T23:53:23.548Z,69.29
2018-07-31T23:55:52.044Z,67.56
2018-07-31T23:58:20.571Z,68.36
